Fumimaru No.28 — JK5561 — position and weather

sailwx.info

Track history (hours):
 
Tides and Currents Weather Stations Pressure Air Temp Water Temp Dewpoint Dewpoint Depression Visibility Wind Speed Wind Dir Waves Ship Positions

Fumimaru No.28

Last reported at 2017-Nov-12 02:54 UTC. Time now 2017-Dec-17 15:29 UTC.
Position N 34°10' E 134°59'.
Warning: this ship's position is 35 days out of date.

Length 30 m; draft 4 m.

Type: Tug. MMSI: 431400734.

Date/timePositionNaut miles runAvg speedWind from/ knotsBaromVisibWave heightAir tempDewpointWater temp
2017-Nov-12 02:54N 34°10' E 134°59'16 6.2
2017-Nov-12 00:15N 34°26' E 135°05'2 6.9
2017-Nov-12 00:00N 34°27' E 135°07'3 6.7
2017-Nov-11 23:30N 34°29' E 135°10'3 6.4
2017-Nov-11 23:00N 34°31' E 135°13'3 6.2
2017-Nov-11 22:30N 34°34' E 135°15'3 6.2
2017-Nov-11 22:00N 34°37' E 135°17'3 6.2
2017-Nov-11 21:30N 34°39' E 135°19'2 4.3
2017-Nov-11 21:01N 34°41' E 135°20'0 0.5
2017-Nov-11 20:31N 34°41' E 135°20'0 0.1
2017-Nov-11 20:00N 34°41' E 135°20'0 0.0
2017-Nov-11 19:28N 34°41' E 135°20'0 0.0
2017-Nov-11 18:55N 34°41' E 135°20'0 0.0
2017-Nov-11 18:30N 34°41' E 135°20'0 0.0
2017-Nov-11 18:00N 34°41' E 135°20'0 0.0
2017-Nov-11 17:30N 34°41' E 135°20'0 0.0
2017-Nov-11 17:01N 34°41' E 135°20'0 0.1
2017-Nov-11 16:30N 34°41' E 135°21'0 0.1
2017-Nov-11 16:00N 34°41' E 135°20'0 0.0
2017-Nov-11 15:30N 34°41' E 135°20'0 0.0
2017-Nov-11 15:00N 34°41' E 135°20'0 0.0
2017-Nov-11 14:30N 34°41' E 135°20'0 0.0
2017-Nov-11 14:00N 34°41' E 135°20'0 0.0
2017-Nov-11 13:30N 34°41' E 135°20'0 0.0
2017-Nov-11 13:01N 34°41' E 135°20'0 0.0
2017-Nov-11 12:30N 34°41' E 135°20'0 0.0
2017-Nov-11 12:00N 34°41' E 135°20'0 0.0
2017-Nov-11 11:30N 34°41' E 135°20'0 0.0
2017-Nov-11 11:00N 34°41' E 135°20'0 0.0
2017-Nov-11 10:30N 34°41' E 135°20'0 0.0
2017-Nov-11 10:00N 34°41' E 135°20'0 0.1
2017-Nov-11 09:30N 34°41' E 135°21'0 0.1
2017-Nov-11 09:00N 34°41' E 135°20'0 0.0
2017-Nov-11 08:30N 34°41' E 135°20'0 0.1
2017-Nov-11 08:00N 34°41' E 135°21'0 0.0
2017-Nov-11 07:30N 34°41' E 135°21'0 0.0
2017-Nov-11 07:00N 34°41' E 135°21'0 0.0
2017-Nov-11 06:30N 34°41' E 135°21'0 0.1
2017-Nov-11 06:01N 34°41' E 135°20'0 0.1
2017-Nov-11 05:30N 34°41' E 135°21'0 0.1
2017-Nov-11 05:00N 34°41' E 135°20'0 0.1
2017-Nov-11 04:30N 34°41' E 135°21'0 0.0
2017-Nov-11 04:01N 34°41' E 135°21'0 0.1
2017-Nov-11 03:30N 34°41' E 135°20'0 0.1
2017-Nov-11 03:00N 34°41' E 135°21'0 0.0
2017-Nov-11 02:31N 34°41' E 135°21'0 0.1
2017-Nov-11 01:59N 34°41' E 135°20'0 0.0
2017-Nov-11 01:28N 34°41' E 135°20'0 0.1
2017-Nov-11 00:59N 34°41' E 135°21'0 0.1
2017-Nov-11 00:31N 34°41' E 135°20'0 0.1
2017-Nov-11 00:01N 34°41' E 135°21'0 0.0
2017-Nov-10 23:30N 34°41' E 135°21'0 0.0
2017-Nov-10 23:00N 34°41' E 135°21'0 0.0
2017-Nov-10 22:31N 34°41' E 135°21'0 0.0
2017-Nov-10 22:01N 34°41' E 135°21'0 0.0
2017-Nov-10 21:30N 34°41' E 135°21'0 0.0
2017-Nov-10 21:01N 34°41' E 135°21'0 0.0
2017-Nov-10 20:30N 34°41' E 135°21'0 0.0
2017-Nov-10 20:01N 34°41' E 135°21'0 0.3
2017-Nov-10 19:30N 34°41' E 135°20'0 0.0
2017-Nov-10 19:00N 34°41' E 135°20'0 0.0
2017-Nov-10 18:31N 34°41' E 135°20'0 0.0
2017-Nov-10 17:59N 34°41' E 135°20'0 0.1
2017-Nov-10 17:30N 34°41' E 135°20'0 0.1
2017-Nov-10 17:00N 34°41' E 135°20'0 0.0
2017-Nov-10 16:30N 34°41' E 135°20'0 0.0
2017-Nov-10 16:00N 34°41' E 135°20'0 0.0
2017-Nov-10 15:30N 34°41' E 135°20'0 0.0
2017-Nov-10 15:00N 34°41' E 135°20'0 0.0
2017-Nov-10 14:30N 34°41' E 135°20'0 0.0
2017-Nov-10 14:00N 34°41' E 135°20'0 0.0
2017-Nov-10 13:30N 34°41' E 135°20'0 0.0
2017-Nov-10 13:00N 34°41' E 135°20'0 0.0
2017-Nov-10 12:30N 34°41' E 135°20'0 0.0
2017-Nov-10 12:00N 34°41' E 135°20'0 0.0
2017-Nov-10 11:30N 34°41' E 135°20'0 0.1
2017-Nov-10 11:00N 34°41' E 135°20'0 0.0
2017-Nov-10 10:30N 34°41' E 135°20'0 0.0
2017-Nov-10 10:00N 34°41' E 135°20'0 0.0
2017-Nov-10 09:29N 34°41' E 135°20'0 0.0
2017-Nov-10 09:00N 34°41' E 135°20'0 0.0
2017-Nov-10 08:30N 34°41' E 135°20'0 0.0
2017-Nov-10 07:48N 34°41' E 135°20'0 0.0
2017-Nov-10 07:29N 34°41' E 135°20'0 0.0
2017-Nov-10 07:00N 34°41' E 135°20'0 0.0
2017-Nov-10 06:30N 34°41' E 135°20'0 0.0
2017-Nov-10 06:00N 34°41' E 135°20'0 0.0
2017-Nov-10 05:28N 34°41' E 135°20'4 7.7
2017-Nov-10 05:01N 34°39' E 135°24'3 4.8
2017-Nov-10 04:28N 34°40' E 135°27'0 0.0
2017-Nov-10 04:00N 34°40' E 135°27'0 0.0
2017-Nov-10 03:21N 34°40' E 135°27'0 0.0
2017-Nov-10 03:00N 34°40' E 135°27'0 0.0
2017-Nov-10 02:14N 34°40' E 135°27'1 1.2
2017-Nov-10 01:28N 34°40' E 135°26'4 8.6
2017-Nov-10 01:00N 34°41' E 135°21'1 2.3
2017-Nov-10 00:30N 34°41' E 135°20'0 0.0
2017-Nov-10 00:00N 34°41' E 135°20'0 0.0
2017-Nov-09 23:30N 34°41' E 135°20'0 0.0
2017-Nov-09 23:00N 34°41' E 135°20'2 3.1
2017-Nov-09 22:31N 34°41' E 135°19'3 5.8
2017-Nov-09 22:00N 34°38' E 135°17'3 5.5
2017-Nov-09 21:30N 34°36' E 135°15'2 4.5
2017-Nov-09 21:01N 34°35' E 135°13'2 3.6
2017-Nov-09 20:30N 34°35' E 135°15'1 2.2
2017-Nov-09 20:00N 34°35' E 135°13'2 4.0
2017-Nov-09 19:30N 34°35' E 135°11'2 4.0
2017-Nov-09 19:00N 34°34' E 135°09'2 4.5
2017-Nov-09 18:30N 34°34' E 135°06'3 6.0
2017-Nov-09 18:00N 34°36' E 135°03'6 5.2
2017-Nov-09 16:47N 34°36' E 134°55'  
2017-Nov-02 13:30N 34°37' E 134°57'4 9.0
2017-Nov-02 13:00N 34°37' E 135°03'510.1
2017-Nov-02 12:30N 34°36' E 135°09'510.7
2017-Nov-02 12:00N 34°35' E 135°15'510.2
2017-Nov-02 11:30N 34°33' E 135°21'3 4.4
2017-Nov-02 10:49N 34°32' E 135°24'2 4.9
2017-Nov-02 10:25N 34°32' E 135°22'3 5.8
2017-Nov-02 10:00N 34°32' E 135°19'3 7.1
2017-Nov-02 09:30N 34°30' E 135°16'4 7.1
2017-Nov-02 09:00N 34°28' E 135°12'11 7.6
2017-Nov-02 07:34N 34°19' E 135°04'3 9.1
2017-Nov-02 07:14N 34°16' E 135°03'2 8.4
2017-Nov-02 07:00N 34°14' E 135°03'4 8.1
2017-Nov-02 06:30N 34°10' E 135°03'  
Track history (hours):
 
Tides and Currents Weather Stations Pressure Air Temp Water Temp Dewpoint Dewpoint Depression Visibility Wind Speed Wind Dir Waves Ship Positions

Fumimaru No.28

Last reported at 2017-Nov-12 02:54 UTC. Time now 2017-Dec-17 15:29 UTC.
Position N 34°10' E 134°59'.
Warning: this ship's position is 35 days out of date.

Length 30 m; draft 4 m.

Type: Tug. MMSI: 431400734.

Date/timePositionNaut miles runAvg speedWind from/ knotsBaromVisibWave heightAir tempDewpointWater temp
2017-Nov-12 02:54N 34°10' E 134°59'16 6.2
2017-Nov-12 00:15N 34°26' E 135°05'2 6.9
2017-Nov-12 00:00N 34°27' E 135°07'3 6.7
2017-Nov-11 23:30N 34°29' E 135°10'3 6.4
2017-Nov-11 23:00N 34°31' E 135°13'3 6.2
2017-Nov-11 22:30N 34°34' E 135°15'3 6.2
2017-Nov-11 22:00N 34°37' E 135°17'3 6.2
2017-Nov-11 21:30N 34°39' E 135°19'2 4.3
2017-Nov-11 21:01N 34°41' E 135°20'0 0.5
2017-Nov-11 20:31N 34°41' E 135°20'0 0.1
2017-Nov-11 20:00N 34°41' E 135°20'0 0.0
2017-Nov-11 19:28N 34°41' E 135°20'0 0.0
2017-Nov-11 18:55N 34°41' E 135°20'0 0.0
2017-Nov-11 18:30N 34°41' E 135°20'0 0.0
2017-Nov-11 18:00N 34°41' E 135°20'0 0.0
2017-Nov-11 17:30N 34°41' E 135°20'0 0.0
2017-Nov-11 17:01N 34°41' E 135°20'0 0.1
2017-Nov-11 16:30N 34°41' E 135°21'0 0.1
2017-Nov-11 16:00N 34°41' E 135°20'0 0.0
2017-Nov-11 15:30N 34°41' E 135°20'0 0.0
2017-Nov-11 15:00N 34°41' E 135°20'0 0.0
2017-Nov-11 14:30N 34°41' E 135°20'0 0.0
2017-Nov-11 14:00N 34°41' E 135°20'0 0.0
2017-Nov-11 13:30N 34°41' E 135°20'0 0.0
2017-Nov-11 13:01N 34°41' E 135°20'0 0.0
2017-Nov-11 12:30N 34°41' E 135°20'0 0.0
2017-Nov-11 12:00N 34°41' E 135°20'0 0.0
2017-Nov-11 11:30N 34°41' E 135°20'0 0.0
2017-Nov-11 11:00N 34°41' E 135°20'0 0.0
2017-Nov-11 10:30N 34°41' E 135°20'0 0.0
2017-Nov-11 10:00N 34°41' E 135°20'0 0.1
2017-Nov-11 09:30N 34°41' E 135°21'0 0.1
2017-Nov-11 09:00N 34°41' E 135°20'0 0.0
2017-Nov-11 08:30N 34°41' E 135°20'0 0.1
2017-Nov-11 08:00N 34°41' E 135°21'0 0.0
2017-Nov-11 07:30N 34°41' E 135°21'0 0.0
2017-Nov-11 07:00N 34°41' E 135°21'0 0.0
2017-Nov-11 06:30N 34°41' E 135°21'0 0.1
2017-Nov-11 06:01N 34°41' E 135°20'0 0.1
2017-Nov-11 05:30N 34°41' E 135°21'0 0.1
2017-Nov-11 05:00N 34°41' E 135°20'0 0.1
2017-Nov-11 04:30N 34°41' E 135°21'0 0.0
2017-Nov-11 04:01N 34°41' E 135°21'0 0.1
2017-Nov-11 03:30N 34°41' E 135°20'0 0.1
2017-Nov-11 03:00N 34°41' E 135°21'0 0.0
2017-Nov-11 02:31N 34°41' E 135°21'0 0.1
2017-Nov-11 01:59N 34°41' E 135°20'0 0.0
2017-Nov-11 01:28N 34°41' E 135°20'0 0.1
2017-Nov-11 00:59N 34°41' E 135°21'0 0.1
2017-Nov-11 00:31N 34°41' E 135°20'0 0.1
2017-Nov-11 00:01N 34°41' E 135°21'0 0.0
2017-Nov-10 23:30N 34°41' E 135°21'0 0.0
2017-Nov-10 23:00N 34°41' E 135°21'0 0.0
2017-Nov-10 22:31N 34°41' E 135°21'0 0.0
2017-Nov-10 22:01N 34°41' E 135°21'0 0.0
2017-Nov-10 21:30N 34°41' E 135°21'0 0.0
2017-Nov-10 21:01N 34°41' E 135°21'0 0.0
2017-Nov-10 20:30N 34°41' E 135°21'0 0.0
2017-Nov-10 20:01N 34°41' E 135°21'0 0.3
2017-Nov-10 19:30N 34°41' E 135°20'0 0.0
2017-Nov-10 19:00N 34°41' E 135°20'0 0.0
2017-Nov-10 18:31N 34°41' E 135°20'0 0.0
2017-Nov-10 17:59N 34°41' E 135°20'0 0.1
2017-Nov-10 17:30N 34°41' E 135°20'0 0.1
2017-Nov-10 17:00N 34°41' E 135°20'0 0.0
2017-Nov-10 16:30N 34°41' E 135°20'0 0.0
2017-Nov-10 16:00N 34°41' E 135°20'0 0.0
2017-Nov-10 15:30N 34°41' E 135°20'0 0.0
2017-Nov-10 15:00N 34°41' E 135°20'0 0.0
2017-Nov-10 14:30N 34°41' E 135°20'0 0.0
2017-Nov-10 14:00N 34°41' E 135°20'0 0.0
2017-Nov-10 13:30N 34°41' E 135°20'0 0.0
2017-Nov-10 13:00N 34°41' E 135°20'0 0.0
2017-Nov-10 12:30N 34°41' E 135°20'0 0.0
2017-Nov-10 12:00N 34°41' E 135°20'0 0.0
2017-Nov-10 11:30N 34°41' E 135°20'0 0.1
2017-Nov-10 11:00N 34°41' E 135°20'0 0.0
2017-Nov-10 10:30N 34°41' E 135°20'0 0.0
2017-Nov-10 10:00N 34°41' E 135°20'0 0.0
2017-Nov-10 09:29N 34°41' E 135°20'0 0.0
2017-Nov-10 09:00N 34°41' E 135°20'0 0.0
2017-Nov-10 08:30N 34°41' E 135°20'0 0.0
2017-Nov-10 07:48N 34°41' E 135°20'0 0.0
2017-Nov-10 07:29N 34°41' E 135°20'0 0.0
2017-Nov-10 07:00N 34°41' E 135°20'0 0.0
2017-Nov-10 06:30N 34°41' E 135°20'0 0.0
2017-Nov-10 06:00N 34°41' E 135°20'0 0.0
2017-Nov-10 05:28N 34°41' E 135°20'4 7.7
2017-Nov-10 05:01N 34°39' E 135°24'3 4.8
2017-Nov-10 04:28N 34°40' E 135°27'0 0.0
2017-Nov-10 04:00N 34°40' E 135°27'0 0.0
2017-Nov-10 03:21N 34°40' E 135°27'0 0.0
2017-Nov-10 03:00N 34°40' E 135°27'0 0.0
2017-Nov-10 02:14N 34°40' E 135°27'1 1.2
2017-Nov-10 01:28N 34°40' E 135°26'4 8.6
2017-Nov-10 01:00N 34°41' E 135°21'1 2.3
2017-Nov-10 00:30N 34°41' E 135°20'0 0.0
2017-Nov-10 00:00N 34°41' E 135°20'0 0.0
2017-Nov-09 23:30N 34°41' E 135°20'0 0.0
2017-Nov-09 23:00N 34°41' E 135°20'2 3.1
2017-Nov-09 22:31N 34°41' E 135°19'3 5.8
2017-Nov-09 22:00N 34°38' E 135°17'3 5.5
2017-Nov-09 21:30N 34°36' E 135°15'2 4.5
2017-Nov-09 21:01N 34°35' E 135°13'2 3.6
2017-Nov-09 20:30N 34°35' E 135°15'1 2.2
2017-Nov-09 20:00N 34°35' E 135°13'2 4.0
2017-Nov-09 19:30N 34°35' E 135°11'2 4.0
2017-Nov-09 19:00N 34°34' E 135°09'2 4.5
2017-Nov-09 18:30N 34°34' E 135°06'3 6.0
2017-Nov-09 18:00N 34°36' E 135°03'6 5.2
2017-Nov-09 16:47N 34°36' E 134°55'  
2017-Nov-02 13:30N 34°37' E 134°57'4 9.0
2017-Nov-02 13:00N 34°37' E 135°03'510.1
2017-Nov-02 12:30N 34°36' E 135°09'510.7
2017-Nov-02 12:00N 34°35' E 135°15'510.2
2017-Nov-02 11:30N 34°33' E 135°21'3 4.4
2017-Nov-02 10:49N 34°32' E 135°24'2 4.9
2017-Nov-02 10:25N 34°32' E 135°22'3 5.8
2017-Nov-02 10:00N 34°32' E 135°19'3 7.1
2017-Nov-02 09:30N 34°30' E 135°16'4 7.1
2017-Nov-02 09:00N 34°28' E 135°12'11 7.6
2017-Nov-02 07:34N 34°19' E 135°04'3 9.1
2017-Nov-02 07:14N 34°16' E 135°03'2 8.4
2017-Nov-02 07:00N 34°14' E 135°03'4 8.1
2017-Nov-02 06:30N 34°10' E 135°03'  

Dump ship's entire track history